createdAt,value
2023-01-10T00:00:22.875Z,97877.67
2023-01-10T00:03:37.037Z,97871.02
2023-01-10T00:06:49.240Z,97879.32
2023-01-10T00:10:01.576Z,97884.33
2023-01-10T00:13:28.902Z,97880.44
2023-01-10T00:16:42.678Z,97882.38
2023-01-10T00:19:54.801Z,97893.06
2023-01-10T00:23:07.451Z,97892.67
2023-01-10T00:26:19.754Z,97895.17
2023-01-10T00:29:35.358Z,97895.03
2023-01-10T00:32:49.176Z,97910.86
2023-01-10T00:36:01.284Z,97907.68
2023-01-10T00:39:15.313Z,97904.89
2023-01-10T00:42:41.480Z,97913.12
2023-01-10T00:45:54.710Z,97920.34
2023-01-10T00:49:11.731Z,97919.20
2023-01-10T00:52:23.763Z,97921.70
2023-01-10T00:55:36.007Z,97926.86
2023-01-10T00:58:48.304Z,97926.84
2023-01-10T01:02:00.566Z,97936.58
2023-01-10T01:05:14.913Z,97938.09
2023-01-10T01:08:27.418Z,97941.02
2023-01-10T01:11:39.856Z,97940.46
2023-01-10T01:14:51.970Z,97941.30
2023-01-10T01:18:04.459Z,97947.94
2023-01-10T01:21:16.554Z,97939.33
2023-01-10T01:24:28.677Z,97939.07
2023-01-10T01:27:40.999Z,97943.80
2023-01-10T01:30:54.009Z,97939.36
2023-01-10T01:34:06.537Z,97941.02
2023-01-10T01:37:19.637Z,97946.55
2023-01-10T01:40:32.727Z,97948.23
2023-01-10T01:44:08.472Z,97955.04
2023-01-10T01:47:26.595Z,97954.34
2023-01-10T01:50:44.138Z,97951.01
2023-01-10T01:54:00.116Z,97951.27
2023-01-10T01:57:16.861Z,97954.05
2023-01-10T02:00:32.124Z,97965.00
2023-01-10T02:03:46.261Z,97963.50
2023-01-10T02:07:01.234Z,97960.86
2023-01-10T02:10:17.742Z,97965.44
2023-01-10T02:13:32.399Z,97956.83
2023-01-10T02:16:44.392Z,97964.05
2023-01-10T02:20:01.461Z,97964.00
2023-01-10T02:23:43.142Z,97964.14
2023-01-10T02:27:19.818Z,97973.45
2023-01-10T02:30:56.040Z,97970.25
2023-01-10T02:34:13.821Z,97988.02
2023-01-10T02:37:30.516Z,97993.14
2023-01-10T02:40:51.670Z,97987.45
2023-01-10T02:44:09.008Z,97996.73
2023-01-10T02:47:21.624Z,97996.84
2023-01-10T02:50:55.568Z,98001.16
2023-01-10T02:54:12.455Z,97999.93
2023-01-10T02:57:43.945Z,97999.77
2023-01-10T03:01:01.731Z,98009.08
2023-01-10T03:04:20.930Z,98000.33
2023-01-10T03:07:39.121Z,98008.38
2023-01-10T03:10:55.645Z,98013.36
2023-01-10T03:14:12.683Z,98017.23
2023-01-10T03:17:26.911Z,98020.29
2023-01-10T03:20:42.104Z,98023.31
2023-01-10T03:23:57.601Z,98034.38
2023-01-10T03:27:16.488Z,98039.90
2023-01-10T03:30:34.957Z,98042.67
2023-01-10T03:33:48.707Z,98046.86
2023-01-10T03:37:07.840Z,98049.49
2023-01-10T03:40:26.797Z,98045.94
2023-01-10T03:44:02.139Z,98057.18
2023-01-10T03:47:20.139Z,98067.23
2023-01-10T03:50:34.553Z,98078.20
2023-01-10T03:53:47.211Z,98076.79
2023-01-10T03:57:01.279Z,98083.20
2023-01-10T04:00:17.578Z,98093.64
2023-01-10T04:03:30.025Z,98102.63
2023-01-10T04:06:42.345Z,98098.77
2023-01-10T04:09:54.677Z,98104.98
2023-01-10T04:13:09.161Z,98105.50
2023-01-10T04:16:21.405Z,98116.31
2023-01-10T04:19:33.780Z,98119.08
2023-01-10T04:22:46.119Z,98117.66
2023-01-10T04:25:58.745Z,98116.95
2023-01-10T04:29:11.120Z,98127.29
2023-01-10T04:32:23.351Z,98128.10
2023-01-10T04:35:35.596Z,98135.05
2023-01-10T04:38:47.709Z,98132.80
2023-01-10T04:41:59.944Z,98147.75
2023-01-10T04:45:16.704Z,98153.02
2023-01-10T04:48:28.943Z,98154.13
2023-01-10T04:51:41.006Z,98164.66
2023-01-10T04:54:53.088Z,98163.69
2023-01-10T04:58:05.310Z,98168.51
2023-01-10T05:01:20.950Z,98163.88
2023-01-10T05:04:34.175Z,98171.51
2023-01-10T05:07:46.767Z,98182.41
2023-01-10T05:10:58.925Z,98197.47
2023-01-10T05:14:12.610Z,98211.66
2023-01-10T05:17:24.887Z,98212.77
2023-01-10T05:20:36.984Z,98208.14
2023-01-10T05:23:49.367Z,98212.80
2023-01-10T05:27:01.481Z,98221.30
2023-01-10T05:30:19.604Z,98220.45
2023-01-10T05:33:31.931Z,98221.66
2023-01-10T05:36:44.062Z,98229.83
2023-01-10T05:39:56.186Z,98240.10
2023-01-10T05:43:08.460Z,98246.08
2023-01-10T05:46:20.662Z,98260.12
2023-01-10T05:49:34.197Z,98259.14
2023-01-10T05:52:46.557Z,98259.73
2023-01-10T05:56:04.543Z,98269.45
2023-01-10T05:59:27.497Z,98281.30
2023-01-10T06:02:30.984Z,98279.25
2023-01-10T06:05:43.386Z,98276.52
2023-01-10T06:08:56.441Z,98292.08
2023-01-10T06:12:08.882Z,98296.63
2023-01-10T06:15:21.656Z,98303.06
2023-01-10T06:18:33.981Z,98304.75
2023-01-10T06:21:46.004Z,98313.59
2023-01-10T06:24:58.573Z,98312.03
2023-01-10T06:28:11.180Z,98322.06
2023-01-10T06:31:23.432Z,98338.47
2023-01-10T06:34:35.886Z,98342.52
2023-01-10T06:37:48.153Z,98350.41
2023-01-10T06:41:02.505Z,98353.29
2023-01-10T06:44:15.138Z,98360.71
2023-01-10T06:47:27.477Z,98366.06
2023-01-10T06:50:39.801Z,98371.11
2023-01-10T06:53:52.195Z,98366.19
2023-01-10T06:57:04.869Z,98373.09
2023-01-10T07:00:22.686Z,98370.47
2023-01-10T07:03:34.994Z,98377.51
2023-01-10T07:06:48.014Z,98378.95
2023-01-10T07:10:00.321Z,98377.63
2023-01-10T07:13:12.671Z,98378.23
2023-01-10T07:16:25.074Z,98379.20
2023-01-10T07:19:37.726Z,98394.71
2023-01-10T07:22:50.263Z,98394.08
2023-01-10T07:26:02.594Z,98390.25
2023-01-10T07:29:15.035Z,98411.81
2023-01-10T07:32:27.199Z,98417.34
2023-01-10T07:35:39.519Z,98415.89
2023-01-10T07:38:51.947Z,98413.72
2023-01-10T07:42:04.079Z,98394.56
2023-01-10T07:45:18.592Z,98419.44
2023-01-10T07:48:31.759Z,98415.30
2023-01-10T07:51:43.916Z,98412.75
2023-01-10T07:54:56.011Z,98412.73
2023-01-10T07:58:08.207Z,98421.34
2023-01-10T08:01:20.511Z,98414.63
2023-01-10T08:04:32.979Z,98429.23
2023-01-10T08:07:44.941Z,98442.62
2023-01-10T08:10:57.107Z,98440.80
2023-01-10T08:14:09.359Z,98448.12
2023-01-10T08:17:21.723Z,98457.25
2023-01-10T08:20:34.435Z,98456.55
2023-01-10T08:23:46.696Z,98461.59
2023-01-10T08:26:59.258Z,98467.70
2023-01-10T08:30:13.663Z,98469.48
2023-01-10T08:33:27.435Z,98474.51
2023-01-10T08:36:39.677Z,98474.42
2023-01-10T08:39:51.850Z,98477.14
2023-01-10T08:43:09.528Z,98478.23
2023-01-10T08:46:21.939Z,98488.63
2023-01-10T08:49:34.290Z,98491.47
2023-01-10T08:52:46.541Z,98502.95
2023-01-10T08:55:58.693Z,98507.49
2023-01-10T08:59:11.257Z,98516.04
2023-01-10T09:02:23.486Z,98529.64
2023-01-10T09:05:35.834Z,98536.35
2023-01-10T09:08:48.039Z,98546.27
2023-01-10T09:12:00.186Z,98528.58
2023-01-10T09:15:15.053Z,98526.47
2023-01-10T09:18:27.458Z,98541.80
2023-01-10T09:21:39.842Z,98545.77
2023-01-10T09:28:18.923Z,98544.08
2023-01-10T09:31:31.151Z,98551.52
2023-01-10T09:34:43.504Z,98553.70
2023-01-10T09:37:57.762Z,98560.42
2023-01-10T09:41:31.681Z,98551.34
2023-01-10T09:44:53.954Z,98549.44
2023-01-10T09:48:12.413Z,98554.95
2023-01-10T09:51:39.436Z,98560.70
2023-01-10T09:54:54.515Z,98566.69
2023-01-10T09:58:11.438Z,98571.02
2023-01-10T10:01:27.735Z,98568.83
2023-01-10T10:04:42.618Z,98577.66
2023-01-10T10:08:02.387Z,98584.95
2023-01-10T10:11:59.648Z,98586.61
2023-01-10T10:15:23.507Z,98583.16
2023-01-10T10:18:44.180Z,98585.80
2023-01-10T10:22:01.915Z,98589.24
2023-01-10T10:25:23.297Z,98593.45
2023-01-10T10:29:15.546Z,98593.45
2023-01-10T10:32:51.117Z,98602.31
2023-01-10T10:36:08.510Z,98607.86
2023-01-10T10:39:25.669Z,98613.33
2023-01-10T10:42:38.520Z,98607.86
2023-01-10T10:45:57.509Z,98613.00
2023-01-10T10:49:18.717Z,98625.71
2023-01-10T10:52:35.336Z,98619.39
2023-01-10T10:55:48.088Z,98625.38
2023-01-10T10:59:03.426Z,98622.63
2023-01-10T11:02:32.522Z,98631.38
2023-01-10T11:05:48.070Z,98638.87
2023-01-10T11:09:04.838Z,98646.44
2023-01-10T11:12:23.080Z,98648.10
2023-01-10T11:15:55.931Z,98654.42
2023-01-10T11:19:23.345Z,98654.94
2023-01-10T11:22:42.292Z,98656.59
2023-01-10T11:25:56.193Z,98664.81
2023-01-10T11:29:20.386Z,98671.98
2023-01-10T11:32:42.266Z,98677.48
2023-01-10T11:36:08.593Z,98690.52
2023-01-10T11:39:25.135Z,98692.23
2023-01-10T11:42:38.261Z,98693.28
2023-01-10T11:45:51.101Z,98704.10
2023-01-10T11:49:10.945Z,98713.89
2023-01-10T11:52:29.663Z,98713.69
2023-01-10T11:55:44.173Z,98722.82
2023-01-10T11:58:56.475Z,98723.05
2023-01-10T12:02:16.483Z,98727.88
2023-01-10T12:05:30.395Z,98725.13
2023-01-10T12:08:45.094Z,98735.36
2023-01-10T12:12:07.247Z,98746.50
2023-01-10T12:15:34.488Z,98752.61
2023-01-10T12:18:46.924Z,98760.39
2023-01-10T12:21:59.331Z,98773.66
2023-01-10T12:25:21.304Z,98772.42
2023-01-10T12:28:35.937Z,98779.23
2023-01-10T12:31:48.354Z,98792.62
2023-01-10T12:35:04.583Z,98792.62
2023-01-10T12:38:28.004Z,98788.09
2023-01-10T12:42:01.347Z,98790.72
2023-01-10T12:45:19.672Z,98783.98
2023-01-10T12:48:38.239Z,98788.41
2023-01-10T12:51:54.140Z,98797.03
2023-01-10T12:55:07.456Z,98796.18
2023-01-10T12:58:26.208Z,98803.77
2023-01-10T13:01:43.270Z,98797.45
2023-01-10T13:05:00.407Z,98804.81
2023-01-10T13:08:16.693Z,98806.28
2023-01-10T13:11:32.722Z,98819.24
2023-01-10T13:14:51.219Z,98815.53
2023-01-10T13:18:09.539Z,98825.02
2023-01-10T13:21:23.729Z,98833.64
2023-01-10T13:24:36.406Z,98834.49
2023-01-10T13:27:48.685Z,98837.63
2023-01-10T13:31:04.239Z,98852.38
2023-01-10T13:34:22.418Z,98859.53
2023-01-10T13:37:40.062Z,98860.27
2023-01-10T13:41:08.557Z,98854.81
2023-01-10T13:44:21.588Z,98860.38
2023-01-10T13:48:07.609Z,98864.80
2023-01-10T13:51:25.643Z,98863.75
2023-01-10T13:54:37.902Z,98868.28
2023-01-10T13:58:01.925Z,98873.43
2023-01-10T14:01:46.543Z,98875.33
2023-01-10T14:05:03.030Z,98875.33
2023-01-10T14:08:24.599Z,98884.19
2023-01-10T14:11:42.834Z,98878.92
2023-01-10T14:15:03.811Z,98879.85
2023-01-10T14:18:26.950Z,98892.89
2023-01-10T14:21:45.682Z,98898.90
2023-01-10T14:25:00.687Z,98892.81
2023-01-10T14:28:29.691Z,98894.48
2023-01-10T14:31:47.156Z,98899.75
2023-01-10T14:35:00.274Z,98905.98
2023-01-10T14:38:17.819Z,98893.55
2023-01-10T14:41:35.925Z,98895.22
2023-01-10T14:44:53.650Z,98899.98
2023-01-10T14:48:05.904Z,98905.02
2023-01-10T14:51:32.516Z,98908.61
2023-01-10T14:54:44.874Z,98905.86
2023-01-10T14:58:05.483Z,98908.69
2023-01-10T15:01:19.476Z,98912.17
2023-01-10T15:04:36.741Z,98910.50
2023-01-10T15:07:49.068Z,98914.91
2023-01-10T15:11:06.849Z,98911.11
2023-01-10T15:14:26.399Z,98918.08
2023-01-10T15:17:40.622Z,98915.52
2023-01-10T15:20:53.478Z,98914.37
2023-01-10T15:24:05.912Z,98921.22
2023-01-10T15:27:22.372Z,98924.81
2023-01-10T15:30:39.226Z,98934.49
2023-01-10T15:33:56.760Z,98931.97
2023-01-10T15:37:10.559Z,98937.02
2023-01-10T15:40:33.509Z,98939.64
2023-01-10T15:43:45.772Z,98953.55
2023-01-10T15:47:04.595Z,98955.13
2023-01-10T15:50:33.217Z,98957.88
2023-01-10T15:54:10.454Z,98970.08
2023-01-10T15:57:36.171Z,98976.81
2023-01-10T16:00:57.065Z,98975.66
2023-01-10T16:04:17.155Z,98975.97
2023-01-10T16:07:34.738Z,98983.67
2023-01-10T16:10:46.973Z,98991.27
2023-01-10T16:13:59.181Z,98992.71
2023-01-10T16:17:12.675Z,98999.05
2023-01-10T16:20:30.412Z,98990.42
2023-01-10T16:23:44.106Z,98993.91
2023-01-10T16:27:03.161Z,99003.47
2023-01-10T16:30:28.370Z,99014.73
2023-01-10T16:33:41.324Z,99013.06
2023-01-10T16:36:54.236Z,99029.68
2023-01-10T16:40:06.449Z,99028.86
2023-01-10T16:43:22.194Z,99037.91
2023-01-10T16:46:34.714Z,99041.28
2023-01-10T16:49:47.009Z,99049.48
2023-01-10T16:52:59.707Z,99052.85
2023-01-10T16:56:13.581Z,99051.38
2023-01-10T16:59:25.978Z,99066.13
2023-01-10T17:02:39.058Z,99072.42
2023-01-10T17:05:52.221Z,99064.83
2023-01-10T17:09:04.545Z,99067.34
2023-01-10T17:12:21.890Z,99071.69
2023-01-10T17:15:36.413Z,99071.69
2023-01-10T17:18:48.921Z,99078.73
2023-01-10T17:22:01.236Z,99076.09
2023-01-10T17:25:19.054Z,99072.94
2023-01-10T17:28:31.654Z,99085.03
2023-01-10T17:31:43.933Z,99090.80
2023-01-10T17:34:56.241Z,99095.88
2023-01-10T17:38:08.586Z,99106.30
2023-01-10T17:41:20.915Z,99102.70
2023-01-10T17:44:33.218Z,99104.52
2023-01-10T17:47:45.607Z,99110.81
2023-01-10T17:51:04.348Z,99114.30
2023-01-10T17:54:16.605Z,99119.56
2023-01-10T17:57:29.010Z,99123.98
2023-01-10T18:00:41.314Z,99125.65
2023-01-10T18:03:54.561Z,99125.47
2023-01-10T18:07:07.144Z,99119.96
2023-01-10T18:10:19.889Z,99121.80
2023-01-10T18:13:34.464Z,99120.84
2023-01-10T18:16:46.729Z,99119.17
2023-01-10T18:19:59.224Z,99131.19
2023-01-10T18:23:27.027Z,99132.97
2023-01-10T18:26:39.468Z,99122.55
2023-01-10T18:29:51.839Z,99130.33
2023-01-10T18:33:06.198Z,99132.22
2023-01-10T18:36:22.227Z,99137.48
2023-01-10T18:39:35.067Z,99140.12
2023-01-10T18:42:49.682Z,99142.53
2023-01-10T18:46:10.713Z,99138.13
2023-01-10T18:49:23.095Z,99139.83
2023-01-10T18:52:35.338Z,99134.75
2023-01-10T18:55:47.739Z,99132.86
2023-01-10T18:59:00.109Z,99144.23
2023-01-10T19:02:12.647Z,99136.84
2023-01-10T19:05:25.355Z,99153.17
2023-01-10T19:08:38.289Z,99157.52
2023-01-10T19:11:50.575Z,99160.89
2023-01-10T19:15:02.788Z,99164.45
2023-01-10T19:18:15.295Z,99165.41
2023-01-10T19:21:30.336Z,99169.17
2023-01-10T19:24:43.225Z,99167.37
2023-01-10T19:27:55.457Z,99155.34
2023-01-10T19:31:08.067Z,99155.34
2023-01-10T19:34:20.688Z,99149.66
2023-01-10T19:37:33.058Z,99170.31
2023-01-10T19:40:45.837Z,99175.77
2023-01-10T19:44:04.198Z,99174.91
2023-01-10T19:47:16.553Z,99179.14
2023-01-10T19:50:28.948Z,99177.25
2023-01-10T19:53:46.514Z,99176.51
2023-01-10T19:56:59.104Z,99181.48
2023-01-10T20:00:13.749Z,99178.00
2023-01-10T20:03:26.075Z,99176.22
2023-01-10T20:06:42.893Z,99181.48
2023-01-10T20:09:55.620Z,99190.31
2023-01-10T20:13:10.173Z,99198.20
2023-01-10T20:16:26.544Z,99197.92
2023-01-10T20:19:40.684Z,99206.77
2023-01-10T20:22:53.630Z,99208.45
2023-01-10T20:26:09.845Z,99207.59
2023-01-10T20:29:23.740Z,99200.38
2023-01-10T20:32:36.740Z,99203.00
2023-01-10T20:35:49.743Z,99201.94
2023-01-10T20:39:03.234Z,99207.20
2023-01-10T20:42:15.822Z,99205.64
2023-01-10T20:45:28.154Z,99216.06
2023-01-10T20:48:41.744Z,99228.20
2023-01-10T20:51:54.441Z,99222.93
2023-01-10T20:55:06.885Z,99222.82
2023-01-10T20:58:19.088Z,99218.48
2023-01-10T21:01:34.865Z,99222.93
2023-01-10T21:04:49.693Z,99227.45
2023-01-10T21:08:01.696Z,99233.35
2023-01-10T21:11:17.126Z,99235.23
2023-01-10T21:14:29.836Z,99236.16
2023-01-10T21:17:43.284Z,99234.67
2023-01-10T21:20:59.920Z,99203.22
2023-01-10T21:24:15.921Z,99239.29
2023-01-10T21:27:30.633Z,99239.19
2023-01-10T21:30:43.224Z,99228.12
2023-01-10T21:33:56.087Z,99253.20
2023-01-10T21:37:08.608Z,99247.94
2023-01-10T21:40:21.274Z,99254.16
2023-01-10T21:43:33.773Z,99253.20
2023-01-10T21:46:48.207Z,99245.30
2023-01-10T21:50:00.719Z,99248.68
2023-01-10T21:53:14.700Z,99245.30
2023-01-10T21:56:27.085Z,99239.29
2023-01-10T21:59:41.840Z,99237.25
2023-01-10T22:02:54.281Z,99249.81
2023-01-10T22:06:08.856Z,99249.72
2023-01-10T22:09:21.438Z,99253.20
2023-01-10T22:12:36.714Z,99253.20
2023-01-10T22:15:49.410Z,99250.56
2023-01-10T22:19:02.050Z,99244.38
2023-01-10T22:22:15.125Z,99238.91
2023-01-10T22:25:27.566Z,99257.16
2023-01-10T22:28:40.245Z,99259.68
2023-01-10T22:31:52.714Z,99264.84
2023-01-10T22:35:05.286Z,99253.56
2023-01-10T22:38:17.550Z,99257.80
2023-01-10T22:41:31.098Z,99247.27
2023-01-10T22:44:43.369Z,99250.54
2023-01-10T22:47:57.458Z,99248.09
2023-01-10T22:51:10.723Z,99256.09
2023-01-10T22:54:23.060Z,99262.84
2023-01-10T22:57:42.755Z,99259.36
2023-01-10T23:00:51.615Z,99255.27
2023-01-10T23:04:03.856Z,99256.94
2023-01-10T23:07:16.198Z,99260.53
2023-01-10T23:10:30.783Z,99252.91
2023-01-10T23:13:43.113Z,99267.86
2023-01-10T23:16:55.723Z,99258.46
2023-01-10T23:20:08.659Z,99257.54
2023-01-10T23:23:20.997Z,99253.20
2023-01-10T23:26:33.381Z,99252.66
2023-01-10T23:29:45.632Z,99259.70
2023-01-10T23:32:57.789Z,99261.69
2023-01-10T23:36:11.461Z,99257.63
2023-01-10T23:39:23.695Z,99248.54
2023-01-10T23:45:42.207Z,99262.45
2023-01-10T23:48:56.152Z,99262.08
2023-01-10T23:52:08.660Z,99264.81
2023-01-10T23:55:21.005Z,99258.80
2023-01-10T23:58:33.190Z,99258.87
